Terminal Aerodrome Forecast
Issued by NWS Grand Forks, ND

Home | Current Version | Previous Version | Graphics & Text | Print | Product List | Glossary On
Versions: 1 2 3 4 5 6 7 8 9 10 11 12 13 14 15 16 17 18 19
024
FTUS43 KFGF 111720
TAFFAR
TAF
KFAR 111720Z 1118/1218 13003KT P6SM BKN040
     FM120300 35007KT P6SM OVC050
     FM120500 34010KT P6SM BKN250=

USA.gov is the U.S. government's official web portal to all federal, state and local government web resources and services.